Etusivu
METAR-TAF:

METAR-TAF

Lentoasemat :

Shawano, Wisconsin, Yhdysvallat

Leveyspiiri: 44-47-14N, Pituuspiiri: 088-33-36W, korkeus merenpinnasta: 248 m

Tämänhetkinen sää

Tämä raportti tehtiin 15 minuuttia sitten, kello 13.55 UTC
Tuuli 4 kn idästä
Lämpötila 23°C
Kosteus 94%
Ilmanpaine 1007 hPa
Näkyvyys: 16.1 km
selkeää

METAR: KEZS 181355Z AUTO 08004KT 10SM CLR 23/22 A2975 RMK AO2 T02330219

Aika: 09:10 (14:10 UTC)


TAF: puuttuu

Säähavainnot ja -ennusteet yli 4000 lentoasemalta (METAR- ja TAF-raportit).

Käytössä olevat sääasemat on merkitty karttaan keltaisilla ja punaisilla pisteillä.

Aseta hiiri pisteen päälle nähdäksesi sääaseman nimen.

Klikkaa sitten nähdäksesi säähavainnot ja -ennusteet.

Kartan vaihtaminen: klikkaa mustalla rastilla varustettuja vihreitä pisteitä, niin voit zoomata sisään; viivalla varustettua vihreää pistettä, niin voit zoomata ulos tai vihreitä nuolia, niin pääset viereisille kartoille.


METAR-TAF: